sensor_id;sensor_type;location;lat;lon;timestamp;temperature;humidity
37460;DHT22;23318;50.966;5.284;2023-02-26T00:01:03;2.20;99.90
37460;DHT22;23318;50.966;5.284;2023-02-26T00:03:36;2.20;99.90
37460;DHT22;23318;50.966;5.284;2023-02-26T00:06:02;2.20;99.90
37460;DHT22;23318;50.966;5.284;2023-02-26T00:08:27;2.30;99.90
37460;DHT22;23318;50.966;5.284;2023-02-26T00:10:53;2.30;99.90
37460;DHT22;23318;50.966;5.284;2023-02-26T00:13:20;2.30;99.90
37460;DHT22;23318;50.966;5.284;2023-02-26T00:15:47;2.20;99.90
37460;DHT22;23318;50.966;5.284;2023-02-26T00:18:15;2.10;99.90
37460;DHT22;23318;50.966;5.284;2023-02-26T00:20:41;2.00;99.90
37460;DHT22;23318;50.966;5.284;2023-02-26T00:23:13;2.00;99.90
37460;DHT22;23318;50.966;5.284;2023-02-26T00:25:39;2.10;99.90
37460;DHT22;23318;50.966;5.284;2023-02-26T00:28:06;2.20;99.90
37460;DHT22;23318;50.966;5.284;2023-02-26T00:30:32;2.20;99.90
37460;DHT22;23318;50.966;5.284;2023-02-26T00:32:58;2.20;99.90
37460;DHT22;23318;50.966;5.284;2023-02-26T00:35:24;2.00;99.90
37460;DHT22;23318;50.966;5.284;2023-02-26T00:38:05;2.00;99.90
37460;DHT22;23318;50.966;5.284;2023-02-26T00:40:44;1.90;99.90
37460;DHT22;23318;50.966;5.284;2023-02-26T00:43:17;1.90;99.90
37460;DHT22;23318;50.966;5.284;2023-02-26T00:45:54;1.60;99.90
37460;DHT22;23318;50.966;5.284;2023-02-26T00:48:31;1.80;99.90
37460;DHT22;23318;50.966;5.284;2023-02-26T00:56:28;1.80;99.90
37460;DHT22;23318;50.966;5.284;2023-02-26T00:58:54;1.60;99.90
37460;DHT22;23318;50.966;5.284;2023-02-26T01:01:20;1.70;99.90
37460;DHT22;23318;50.966;5.284;2023-02-26T01:03:46;1.70;99.90
37460;DHT22;23318;50.966;5.284;2023-02-26T01:06:14;1.70;99.90
37460;DHT22;23318;50.966;5.284;2023-02-26T01:08:54;1.60;99.90
37460;DHT22;23318;50.966;5.284;2023-02-26T01:11:24;1.60;99.90
37460;DHT22;23318;50.966;5.284;2023-02-26T01:13:50;1.60;99.90
37460;DHT22;23318;50.966;5.284;2023-02-26T01:16:20;1.50;99.90
37460;DHT22;23318;50.966;5.284;2023-02-26T01:18:58;1.40;99.90
37460;DHT22;23318;50.966;5.284;2023-02-26T01:21:35;1.40;99.90
37460;DHT22;23318;50.966;5.284;2023-02-26T01:24:05;1.40;99.90
37460;DHT22;23318;50.966;5.284;2023-02-26T01:26:33;1.30;99.90
37460;DHT22;23318;50.966;5.284;2023-02-26T01:28:59;1.20;99.90
37460;DHT22;23318;50.966;5.284;2023-02-26T01:31:43;1.40;99.90
37460;DHT22;23318;50.966;5.284;2023-02-26T01:34:22;1.10;99.90
37460;DHT22;23318;50.966;5.284;2023-02-26T01:39:46;1.40;99.90
37460;DHT22;23318;50.966;5.284;2023-02-26T01:42:27;1.50;99.90
37460;DHT22;23318;50.966;5.284;2023-02-26T01:45:00;1.60;99.90
37460;DHT22;23318;50.966;5.284;2023-02-26T01:50:13;1.40;99.90
37460;DHT22;23318;50.966;5.284;2023-02-26T01:55:19;1.90;99.90
37460;DHT22;23318;50.966;5.284;2023-02-26T01:57:46;2.00;99.90
37460;DHT22;23318;50.966;5.284;2023-02-26T02:00:12;1.90;99.90
37460;DHT22;23318;50.966;5.284;2023-02-26T02:02:38;2.00;99.90
37460;DHT22;23318;50.966;5.284;2023-02-26T02:05:12;2.10;99.90
37460;DHT22;23318;50.966;5.284;2023-02-26T02:07:41;2.10;99.90
37460;DHT22;23318;50.966;5.284;2023-02-26T02:10:07;2.00;99.90
37460;DHT22;23318;50.966;5.284;2023-02-26T02:15:22;2.00;99.90
37460;DHT22;23318;50.966;5.284;2023-02-26T02:32:13;2.40;99.90
37460;DHT22;23318;50.966;5.284;2023-02-26T02:37:35;2.00;99.90
37460;DHT22;23318;50.966;5.284;2023-02-26T02:40:14;1.90;99.90
37460;DHT22;23318;50.966;5.284;2023-02-26T02:42:50;1.80;99.90
37460;DHT22;23318;50.966;5.284;2023-02-26T02:45:29;1.60;99.90
37460;DHT22;23318;50.966;5.284;2023-02-26T02:48:01;1.60;99.90
37460;DHT22;23318;50.966;5.284;2023-02-26T02:50:34;1.60;99.90
37460;DHT22;23318;50.966;5.284;2023-02-26T02:53:16;1.60;99.90
37460;DHT22;23318;50.966;5.284;2023-02-26T02:55:54;1.50;99.90
37460;DHT22;23318;50.966;5.284;2023-02-26T02:58:24;1.50;99.90
37460;DHT22;23318;50.966;5.284;2023-02-26T03:00:54;1.60;99.90
37460;DHT22;23318;50.966;5.284;2023-02-26T03:06:22;1.60;99.90
37460;DHT22;23318;50.966;5.284;2023-02-26T03:08:50;1.60;99.90
37460;DHT22;23318;50.966;5.284;2023-02-26T03:11:17;1.60;99.90
37460;DHT22;23318;50.966;5.284;2023-02-26T03:13:43;1.50;99.90
37460;DHT22;23318;50.966;5.284;2023-02-26T03:19:30;1.50;99.90
37460;DHT22;23318;50.966;5.284;2023-02-26T03:22:08;1.60;99.90
37460;DHT22;23318;50.966;5.284;2023-02-26T03:30:02;1.50;99.90
37460;DHT22;23318;50.966;5.284;2023-02-26T03:35:19;1.40;99.90
37460;DHT22;23318;50.966;5.284;2023-02-26T03:37:54;1.50;99.90
37460;DHT22;23318;50.966;5.284;2023-02-26T03:40:36;1.40;99.90
37460;DHT22;23318;50.966;5.284;2023-02-26T03:43:24;1.40;99.90
37460;DHT22;23318;50.966;5.284;2023-02-26T03:45:53;1.50;99.90
37460;DHT22;23318;50.966;5.284;2023-02-26T03:48:25;1.40;99.90
37460;DHT22;23318;50.966;5.284;2023-02-26T03:50:55;1.50;99.90
37460;DHT22;23318;50.966;5.284;2023-02-26T03:53:37;1.50;99.90
37460;DHT22;23318;50.966;5.284;2023-02-26T03:58:37;1.50;99.90
37460;DHT22;23318;50.966;5.284;2023-02-26T04:01:06;1.50;99.90
37460;DHT22;23318;50.966;5.284;2023-02-26T04:03:44;1.60;99.90
37460;DHT22;23318;50.966;5.284;2023-02-26T04:06:12;1.60;99.90
37460;DHT22;23318;50.966;5.284;2023-02-26T04:08:39;1.70;99.90
37460;DHT22;23318;50.966;5.284;2023-02-26T04:11:09;1.50;99.90
37460;DHT22;23318;50.966;5.284;2023-02-26T04:13:36;1.50;99.90
37460;DHT22;23318;50.966;5.284;2023-02-26T04:16:02;1.40;99.90
37460;DHT22;23318;50.966;5.284;2023-02-26T04:18:28;1.40;99.90
37460;DHT22;23318;50.966;5.284;2023-02-26T04:20:54;1.40;99.90
37460;DHT22;23318;50.966;5.284;2023-02-26T04:23:19;1.30;99.90
37460;DHT22;23318;50.966;5.284;2023-02-26T04:25:45;1.40;99.90
37460;DHT22;23318;50.966;5.284;2023-02-26T04:28:11;1.40;99.90
37460;DHT22;23318;50.966;5.284;2023-02-26T04:30:37;1.30;99.90
37460;DHT22;23318;50.966;5.284;2023-02-26T04:33:02;1.30;99.90
37460;DHT22;23318;50.966;5.284;2023-02-26T04:35:28;1.30;99.90
37460;DHT22;23318;50.966;5.284;2023-02-26T04:37:54;1.30;99.90
37460;DHT22;23318;50.966;5.284;2023-02-26T04:40:19;1.30;99.90
37460;DHT22;23318;50.966;5.284;2023-02-26T04:42:45;1.20;99.90
37460;DHT22;23318;50.966;5.284;2023-02-26T04:45:10;1.10;99.90
37460;DHT22;23318;50.966;5.284;2023-02-26T04:47:36;1.10;99.90
37460;DHT22;23318;50.966;5.284;2023-02-26T04:50:02;1.10;99.90
37460;DHT22;23318;50.966;5.284;2023-02-26T04:52:28;1.10;99.90
37460;DHT22;23318;50.966;5.284;2023-02-26T04:54:54;0.90;99.90
37460;DHT22;23318;50.966;5.284;2023-02-26T04:57:20;0.90;99.90
37460;DHT22;23318;50.966;5.284;2023-02-26T04:59:45;1.00;99.90
37460;DHT22;23318;50.966;5.284;2023-02-26T05:02:11;0.90;99.90
37460;DHT22;23318;50.966;5.284;2023-02-26T05:04:37;0.90;99.90
37460;DHT22;23318;50.966;5.284;2023-02-26T05:07:03;0.80;99.90
37460;DHT22;23318;50.966;5.284;2023-02-26T05:09:28;0.70;99.90
37460;DHT22;23318;50.966;5.284;2023-02-26T05:11:54;0.70;99.90
37460;DHT22;23318;50.966;5.284;2023-02-26T05:14:20;0.60;99.90
37460;DHT22;23318;50.966;5.284;2023-02-26T05:16:45;0.60;99.90
37460;DHT22;23318;50.966;5.284;2023-02-26T05:19:11;0.50;99.90
37460;DHT22;23318;50.966;5.284;2023-02-26T05:21:37;0.50;99.90
37460;DHT22;23318;50.966;5.284;2023-02-26T05:24:02;0.60;99.90
37460;DHT22;23318;50.966;5.284;2023-02-26T05:26:28;0.50;99.90
37460;DHT22;23318;50.966;5.284;2023-02-26T05:28:55;0.50;99.90
37460;DHT22;23318;50.966;5.284;2023-02-26T05:31:20;0.50;99.90
37460;DHT22;23318;50.966;5.284;2023-02-26T05:33:46;0.40;99.90
37460;DHT22;23318;50.966;5.284;2023-02-26T05:36:12;0.40;99.90
37460;DHT22;23318;50.966;5.284;2023-02-26T05:38:38;0.40;99.90
37460;DHT22;23318;50.966;5.284;2023-02-26T05:41:03;0.40;99.90
37460;DHT22;23318;50.966;5.284;2023-02-26T05:43:30;0.30;99.90
37460;DHT22;23318;50.966;5.284;2023-02-26T05:45:55;0.30;99.90
37460;DHT22;23318;50.966;5.284;2023-02-26T05:48:22;0.20;99.90
37460;DHT22;23318;50.966;5.284;2023-02-26T05:50:48;0.30;99.90
37460;DHT22;23318;50.966;5.284;2023-02-26T05:53:14;0.30;99.90
37460;DHT22;23318;50.966;5.284;2023-02-26T05:55:40;0.30;99.90
37460;DHT22;23318;50.966;5.284;2023-02-26T05:58:06;0.20;99.90
37460;DHT22;23318;50.966;5.284;2023-02-26T06:00:32;0.20;99.90
37460;DHT22;23318;50.966;5.284;2023-02-26T06:02:58;0.30;99.90
37460;DHT22;23318;50.966;5.284;2023-02-26T06:05:23;0.20;99.90
37460;DHT22;23318;50.966;5.284;2023-02-26T06:07:49;0.10;99.90
37460;DHT22;23318;50.966;5.284;2023-02-26T06:10:15;0.10;99.90
37460;DHT22;23318;50.966;5.284;2023-02-26T06:12:41;0.10;99.90
37460;DHT22;23318;50.966;5.284;2023-02-26T06:15:07;0.10;99.90
37460;DHT22;23318;50.966;5.284;2023-02-26T06:17:34;0.20;99.90
37460;DHT22;23318;50.966;5.284;2023-02-26T06:19:59;0.10;99.90
37460;DHT22;23318;50.966;5.284;2023-02-26T06:22:25;0.10;99.90
37460;DHT22;23318;50.966;5.284;2023-02-26T06:24:51;0.00;99.90
37460;DHT22;23318;50.966;5.284;2023-02-26T06:27:17;0.00;99.90
37460;DHT22;23318;50.966;5.284;2023-02-26T06:29:42;-0.10;99.90
37460;DHT22;23318;50.966;5.284;2023-02-26T06:32:08;-0.10;99.90
37460;DHT22;23318;50.966;5.284;2023-02-26T06:34:34;-0.10;99.90
37460;DHT22;23318;50.966;5.284;2023-02-26T06:36:59;-0.10;99.90
37460;DHT22;23318;50.966;5.284;2023-02-26T06:39:25;-0.10;99.90
37460;DHT22;23318;50.966;5.284;2023-02-26T06:41:51;-0.10;99.90
37460;DHT22;23318;50.966;5.284;2023-02-26T06:44:16;-0.10;99.90
37460;DHT22;23318;50.966;5.284;2023-02-26T06:46:42;-0.10;99.90
37460;DHT22;23318;50.966;5.284;2023-02-26T06:49:08;-0.10;99.90
37460;DHT22;23318;50.966;5.284;2023-02-26T06:51:34;-0.10;99.90
37460;DHT22;23318;50.966;5.284;2023-02-26T06:54:00;0.00;99.90
37460;DHT22;23318;50.966;5.284;2023-02-26T06:56:26;-0.10;99.90
37460;DHT22;23318;50.966;5.284;2023-02-26T06:58:52;-0.10;99.90
37460;DHT22;23318;50.966;5.284;2023-02-26T07:01:18;0.00;99.90
37460;DHT22;23318;50.966;5.284;2023-02-26T07:03:44;0.00;99.90
37460;DHT22;23318;50.966;5.284;2023-02-26T07:06:11;0.00;99.90
37460;DHT22;23318;50.966;5.284;2023-02-26T07:08:37;0.10;99.90
37460;DHT22;23318;50.966;5.284;2023-02-26T07:11:03;0.10;99.90
37460;DHT22;23318;50.966;5.284;2023-02-26T07:13:29;0.20;99.90
37460;DHT22;23318;50.966;5.284;2023-02-26T07:15:55;0.20;99.90
37460;DHT22;23318;50.966;5.284;2023-02-26T07:18:20;0.20;99.90
37460;DHT22;23318;50.966;5.284;2023-02-26T07:20:48;0.30;99.90
37460;DHT22;23318;50.966;5.284;2023-02-26T07:23:14;0.30;99.90
37460;DHT22;23318;50.966;5.284;2023-02-26T07:25:40;0.40;99.90
37460;DHT22;23318;50.966;5.284;2023-02-26T07:28:06;0.40;99.90
37460;DHT22;23318;50.966;5.284;2023-02-26T07:30:31;0.40;99.90
37460;DHT22;23318;50.966;5.284;2023-02-26T07:32:57;0.40;99.90
37460;DHT22;23318;50.966;5.284;2023-02-26T07:35:23;0.40;99.90
37460;DHT22;23318;50.966;5.284;2023-02-26T07:37:49;0.50;99.90
37460;DHT22;23318;50.966;5.284;2023-02-26T07:40:15;0.50;99.90
37460;DHT22;23318;50.966;5.284;2023-02-26T07:42:40;0.50;99.90
37460;DHT22;23318;50.966;5.284;2023-02-26T07:45:07;0.60;99.90
37460;DHT22;23318;50.966;5.284;2023-02-26T07:47:33;0.70;99.90
37460;DHT22;23318;50.966;5.284;2023-02-26T07:49:59;0.60;99.90
37460;DHT22;23318;50.966;5.284;2023-02-26T07:52:25;0.70;99.90
37460;DHT22;23318;50.966;5.284;2023-02-26T07:54:51;0.80;99.90
37460;DHT22;23318;50.966;5.284;2023-02-26T07:57:18;0.90;99.90
37460;DHT22;23318;50.966;5.284;2023-02-26T07:59:43;0.90;99.90
37460;DHT22;23318;50.966;5.284;2023-02-26T08:02:10;0.90;99.90
37460;DHT22;23318;50.966;5.284;2023-02-26T08:04:36;0.90;99.90
37460;DHT22;23318;50.966;5.284;2023-02-26T08:07:02;0.90;99.90
37460;DHT22;23318;50.966;5.284;2023-02-26T08:09:28;1.10;99.90
37460;DHT22;23318;50.966;5.284;2023-02-26T08:11:55;1.10;99.90
37460;DHT22;23318;50.966;5.284;2023-02-26T08:14:21;1.30;99.90
37460;DHT22;23318;50.966;5.284;2023-02-26T08:16:47;1.30;99.90
37460;DHT22;23318;50.966;5.284;2023-02-26T08:19:12;1.40;99.90
37460;DHT22;23318;50.966;5.284;2023-02-26T08:21:38;1.50;99.90
37460;DHT22;23318;50.966;5.284;2023-02-26T08:24:04;1.60;99.90
37460;DHT22;23318;50.966;5.284;2023-02-26T08:26:30;1.60;99.90
37460;DHT22;23318;50.966;5.284;2023-02-26T08:28:55;1.50;99.90
37460;DHT22;23318;50.966;5.284;2023-02-26T08:31:21;1.50;99.90
37460;DHT22;23318;50.966;5.284;2023-02-26T08:33:47;1.50;99.90
37460;DHT22;23318;50.966;5.284;2023-02-26T08:36:13;1.60;99.90
37460;DHT22;23318;50.966;5.284;2023-02-26T08:38:39;1.60;99.90
37460;DHT22;23318;50.966;5.284;2023-02-26T08:41:04;1.70;99.90
37460;DHT22;23318;50.966;5.284;2023-02-26T08:43:30;1.80;99.90
37460;DHT22;23318;50.966;5.284;2023-02-26T08:45:56;1.80;99.90
37460;DHT22;23318;50.966;5.284;2023-02-26T08:48:23;1.90;99.90
37460;DHT22;23318;50.966;5.284;2023-02-26T08:50:49;2.00;99.90
37460;DHT22;23318;50.966;5.284;2023-02-26T08:53:15;2.10;99.90
37460;DHT22;23318;50.966;5.284;2023-02-26T08:55:41;2.20;99.90
37460;DHT22;23318;50.966;5.284;2023-02-26T08:58:09;2.20;99.90
37460;DHT22;23318;50.966;5.284;2023-02-26T09:00:35;2.20;99.90
37460;DHT22;23318;50.966;5.284;2023-02-26T09:03:01;2.10;99.90
37460;DHT22;23318;50.966;5.284;2023-02-26T09:05:27;2.10;99.90
37460;DHT22;23318;50.966;5.284;2023-02-26T09:07:52;2.10;99.90
37460;DHT22;23318;50.966;5.284;2023-02-26T09:10:18;2.40;99.90
37460;DHT22;23318;50.966;5.284;2023-02-26T09:12:44;2.40;99.90
37460;DHT22;23318;50.966;5.284;2023-02-26T09:15:11;2.30;99.90
37460;DHT22;23318;50.966;5.284;2023-02-26T09:17:39;2.40;99.90
37460;DHT22;23318;50.966;5.284;2023-02-26T09:20:05;2.60;99.90
37460;DHT22;23318;50.966;5.284;2023-02-26T09:22:31;2.60;99.90
37460;DHT22;23318;50.966;5.284;2023-02-26T09:24:56;2.50;99.90
37460;DHT22;23318;50.966;5.284;2023-02-26T09:27:22;2.50;99.90
37460;DHT22;23318;50.966;5.284;2023-02-26T09:29:49;2.50;99.90
37460;DHT22;23318;50.966;5.284;2023-02-26T09:32:15;2.70;99.90
37460;DHT22;23318;50.966;5.284;2023-02-26T09:34:40;2.80;99.90
37460;DHT22;23318;50.966;5.284;2023-02-26T09:37:07;2.70;99.90
37460;DHT22;23318;50.966;5.284;2023-02-26T09:39:34;2.80;99.90
37460;DHT22;23318;50.966;5.284;2023-02-26T09:44:49;3.00;99.80
37460;DHT22;23318;50.966;5.284;2023-02-26T09:47:30;3.00;99.80
37460;DHT22;23318;50.966;5.284;2023-02-26T09:50:33;3.10;99.90
37460;DHT22;23318;50.966;5.284;2023-02-26T09:53:15;3.20;99.50
37460;DHT22;23318;50.966;5.284;2023-02-26T09:55:44;3.30;99.70
37460;DHT22;23318;50.966;5.284;2023-02-26T09:58:31;3.40;99.30
37460;DHT22;23318;50.966;5.284;2023-02-26T10:04:03;3.20;99.30
37460;DHT22;23318;50.966;5.284;2023-02-26T10:12:24;3.80;99.30
37460;DHT22;23318;50.966;5.284;2023-02-26T10:15:00;4.10;98.70
37460;DHT22;23318;50.966;5.284;2023-02-26T10:17:38;4.20;98.50
37460;DHT22;23318;50.966;5.284;2023-02-26T10:20:13;4.30;98.60
37460;DHT22;23318;50.966;5.284;2023-02-26T10:23:11;4.40;98.40
37460;DHT22;23318;50.966;5.284;2023-02-26T10:25:45;4.30;98.40
37460;DHT22;23318;50.966;5.284;2023-02-26T10:31:08;4.50;98.20
37460;DHT22;23318;50.966;5.284;2023-02-26T10:36:26;4.40;98.10
37460;DHT22;23318;50.966;5.284;2023-02-26T10:39:03;4.60;97.70
37460;DHT22;23318;50.966;5.284;2023-02-26T10:41:35;5.20;97.00
37460;DHT22;23318;50.966;5.284;2023-02-26T10:49:50;4.30;96.60
37460;DHT22;23318;50.966;5.284;2023-02-26T10:52:19;4.40;96.30
37460;DHT22;23318;50.966;5.284;2023-02-26T10:57:24;4.90;96.20
37460;DHT22;23318;50.966;5.284;2023-02-26T10:59:51;5.50;95.60
37460;DHT22;23318;50.966;5.284;2023-02-26T11:02:41;6.00;95.00
37460;DHT22;23318;50.966;5.284;2023-02-26T11:05:19;5.90;94.90
37460;DHT22;23318;50.966;5.284;2023-02-26T11:07:50;6.00;94.60
37460;DHT22;23318;50.966;5.284;2023-02-26T11:10:21;5.90;94.20
37460;DHT22;23318;50.966;5.284;2023-02-26T11:12:48;6.20;94.20
37460;DHT22;23318;50.966;5.284;2023-02-26T11:15:16;6.90;94.30
37460;DHT22;23318;50.966;5.284;2023-02-26T11:17:45;6.80;93.80
37460;DHT22;23318;50.966;5.284;2023-02-26T11:22:52;7.80;93.40
37460;DHT22;23318;50.966;5.284;2023-02-26T11:25:23;7.70;93.00
37460;DHT22;23318;50.966;5.284;2023-02-26T11:27:54;8.40;93.10
37460;DHT22;23318;50.966;5.284;2023-02-26T11:30:25;9.20;92.00
37460;DHT22;23318;50.966;5.284;2023-02-26T11:32:53;9.10;91.80
37460;DHT22;23318;50.966;5.284;2023-02-26T11:35:23;9.70;91.30
37460;DHT22;23318;50.966;5.284;2023-02-26T11:37:59;9.10;91.10
37460;DHT22;23318;50.966;5.284;2023-02-26T11:40:47;10.20;90.90
37460;DHT22;23318;50.966;5.284;2023-02-26T11:43:19;9.30;90.20
37460;DHT22;23318;50.966;5.284;2023-02-26T11:45:51;8.70;90.40
37460;DHT22;23318;50.966;5.284;2023-02-26T11:48:26;7.00;90.50
37460;DHT22;23318;50.966;5.284;2023-02-26T11:50:58;6.60;91.30
37460;DHT22;23318;50.966;5.284;2023-02-26T11:53:36;7.30;90.70
37460;DHT22;23318;50.966;5.284;2023-02-26T11:56:11;7.10;90.90
37460;DHT22;23318;50.966;5.284;2023-02-26T11:58:39;6.60;91.00
37460;DHT22;23318;50.966;5.284;2023-02-26T12:01:07;7.10;91.20
37460;DHT22;23318;50.966;5.284;2023-02-26T12:03:37;9.50;90.20
37460;DHT22;23318;50.966;5.284;2023-02-26T12:06:06;11.00;88.20
37460;DHT22;23318;50.966;5.284;2023-02-26T12:08:39;12.40;84.60
37460;DHT22;23318;50.966;5.284;2023-02-26T12:28:14;9.30;83.30
37460;DHT22;23318;50.966;5.284;2023-02-26T12:55:53;6.90;84.30
37460;DHT22;23318;50.966;5.284;2023-02-26T13:06:43;12.10;80.80
37460;DHT22;23318;50.966;5.284;2023-02-26T13:11:49;11.50;80.40
37460;DHT22;23318;50.966;5.284;2023-02-26T13:20:16;7.60;83.70
37460;DHT22;23318;50.966;5.284;2023-02-26T13:22:49;8.30;83.00
37460;DHT22;23318;50.966;5.284;2023-02-26T13:25:39;9.70;81.80
37460;DHT22;23318;50.966;5.284;2023-02-26T13:30:59;12.40;78.80
37460;DHT22;23318;50.966;5.284;2023-02-26T13:33:30;13.10;77.10
37460;DHT22;23318;50.966;5.284;2023-02-26T13:35:58;13.60;75.30
37460;DHT22;23318;50.966;5.284;2023-02-26T13:41:43;10.40;77.50
37460;DHT22;23318;50.966;5.284;2023-02-26T13:52:26;13.00;77.60
37460;DHT22;23318;50.966;5.284;2023-02-26T13:54:53;12.40;75.10
37460;DHT22;23318;50.966;5.284;2023-02-26T14:02:52;11.40;75.30
37460;DHT22;23318;50.966;5.284;2023-02-26T14:10:56;12.10;73.40
37460;DHT22;23318;50.966;5.284;2023-02-26T14:14:04;12.80;73.90
37460;DHT22;23318;50.966;5.284;2023-02-26T14:16:28;13.70;73.00
37460;DHT22;23318;50.966;5.284;2023-02-26T14:19:20;12.30;72.40
37460;DHT22;23318;50.966;5.284;2023-02-26T14:24:56;11.60;74.20
37460;DHT22;23318;50.966;5.284;2023-02-26T14:27:33;12.70;72.30
37460;DHT22;23318;50.966;5.284;2023-02-26T14:35:23;12.20;71.20
37460;DHT22;23318;50.966;5.284;2023-02-26T14:38:23;12.90;71.40
37460;DHT22;23318;50.966;5.284;2023-02-26T14:40:58;13.20;71.00
37460;DHT22;23318;50.966;5.284;2023-02-26T14:43:35;12.90;70.60
37460;DHT22;23318;50.966;5.284;2023-02-26T14:46:03;13.00;70.50
37460;DHT22;23318;50.966;5.284;2023-02-26T14:48:29;12.30;71.90
37460;DHT22;23318;50.966;5.284;2023-02-26T15:23:50;12.10;70.80
37460;DHT22;23318;50.966;5.284;2023-02-26T15:26:22;13.20;70.50
37460;DHT22;23318;50.966;5.284;2023-02-26T15:28:50;12.80;70.00
37460;DHT22;23318;50.966;5.284;2023-02-26T15:31:18;13.00;70.20
37460;DHT22;23318;50.966;5.284;2023-02-26T15:33:47;11.50;70.10
37460;DHT22;23318;50.966;5.284;2023-02-26T15:36:18;11.70;71.80
37460;DHT22;23318;50.966;5.284;2023-02-26T15:38:54;12.10;70.80
37460;DHT22;23318;50.966;5.284;2023-02-26T15:41:20;12.50;69.40
37460;DHT22;23318;50.966;5.284;2023-02-26T15:43:53;11.30;69.00
37460;DHT22;23318;50.966;5.284;2023-02-26T15:46:22;11.30;70.50
37460;DHT22;23318;50.966;5.284;2023-02-26T15:48:49;11.20;69.70
37460;DHT22;23318;50.966;5.284;2023-02-26T15:51:17;12.50;70.20
37460;DHT22;23318;50.966;5.284;2023-02-26T15:53:48;12.70;68.50
37460;DHT22;23318;50.966;5.284;2023-02-26T15:56:24;12.30;69.30
37460;DHT22;23318;50.966;5.284;2023-02-26T15:59:02;11.90;69.20
37460;DHT22;23318;50.966;5.284;2023-02-26T16:01:30;11.90;69.40
37460;DHT22;23318;50.966;5.284;2023-02-26T16:03:59;12.00;70.00
37460;DHT22;23318;50.966;5.284;2023-02-26T16:06:37;11.60;69.70
37460;DHT22;23318;50.966;5.284;2023-02-26T16:09:06;11.90;69.70
37460;DHT22;23318;50.966;5.284;2023-02-26T16:11:35;11.60;69.10
37460;DHT22;23318;50.966;5.284;2023-02-26T16:14:03;11.10;70.00
37460;DHT22;23318;50.966;5.284;2023-02-26T16:16:41;11.80;70.60
37460;DHT22;23318;50.966;5.284;2023-02-26T16:19:15;12.70;70.00
37460;DHT22;23318;50.966;5.284;2023-02-26T16:21:42;11.80;69.50
37460;DHT22;23318;50.966;5.284;2023-02-26T16:24:14;12.20;70.00
37460;DHT22;23318;50.966;5.284;2023-02-26T16:26:51;10.70;69.90
37460;DHT22;23318;50.966;5.284;2023-02-26T16:29:25;10.50;71.20
37460;DHT22;23318;50.966;5.284;2023-02-26T16:31:56;10.40;71.50
37460;DHT22;23318;50.966;5.284;2023-02-26T16:34:53;10.40;71.00
37460;DHT22;23318;50.966;5.284;2023-02-26T16:40:17;10.00;71.90
37460;DHT22;23318;50.966;5.284;2023-02-26T16:42:47;9.70;72.10
37460;DHT22;23318;50.966;5.284;2023-02-26T16:46:03;9.80;72.80
37460;DHT22;23318;50.966;5.284;2023-02-26T16:48:11;9.80;73.10
37460;DHT22;23318;50.966;5.284;2023-02-26T16:50:38;10.10;73.20
37460;DHT22;23318;50.966;5.284;2023-02-26T16:53:07;10.00;73.40
37460;DHT22;23318;50.966;5.284;2023-02-26T16:55:36;9.30;73.10
37460;DHT22;23318;50.966;5.284;2023-02-26T16:58:05;9.00;74.50
37460;DHT22;23318;50.966;5.284;2023-02-26T17:00:32;8.80;74.80
37460;DHT22;23318;50.966;5.284;2023-02-26T17:03:10;8.40;75.30
37460;DHT22;23318;50.966;5.284;2023-02-26T17:05:58;7.90;76.10
37460;DHT22;23318;50.966;5.284;2023-02-26T17:08:58;7.70;76.50
37460;DHT22;23318;50.966;5.284;2023-02-26T17:11:33;7.50;77.30
37460;DHT22;23318;50.966;5.284;2023-02-26T17:14:23;7.40;78.10
37460;DHT22;23318;50.966;5.284;2023-02-26T17:16:50;7.40;78.50
37460;DHT22;23318;50.966;5.284;2023-02-26T17:19:17;7.30;78.90
37460;DHT22;23318;50.966;5.284;2023-02-26T17:21:49;7.40;78.90
37460;DHT22;23318;50.966;5.284;2023-02-26T17:24:20;7.30;80.10
37460;DHT22;23318;50.966;5.284;2023-02-26T17:26:48;7.20;79.40
37460;DHT22;23318;50.966;5.284;2023-02-26T17:29:25;7.20;79.90
37460;DHT22;23318;50.966;5.284;2023-02-26T17:31:52;7.30;80.10
37460;DHT22;23318;50.966;5.284;2023-02-26T17:34:19;7.30;80.40
37460;DHT22;23318;50.966;5.284;2023-02-26T17:36:45;7.20;80.00
37460;DHT22;23318;50.966;5.284;2023-02-26T17:39:12;7.20;80.70
37460;DHT22;23318;50.966;5.284;2023-02-26T17:41:38;7.20;80.60
37460;DHT22;23318;50.966;5.284;2023-02-26T17:44:04;7.10;80.60
37460;DHT22;23318;50.966;5.284;2023-02-26T17:46:30;7.10;81.90
37460;DHT22;23318;50.966;5.284;2023-02-26T17:48:56;7.10;81.30
37460;DHT22;23318;50.966;5.284;2023-02-26T17:51:22;7.00;81.90
37460;DHT22;23318;50.966;5.284;2023-02-26T17:53:48;7.00;82.10
37460;DHT22;23318;50.966;5.284;2023-02-26T17:56:26;6.90;82.00
37460;DHT22;23318;50.966;5.284;2023-02-26T17:58:53;6.80;82.70
37460;DHT22;23318;50.966;5.284;2023-02-26T18:01:20;6.80;82.90
37460;DHT22;23318;50.966;5.284;2023-02-26T18:03:48;6.80;83.20
37460;DHT22;23318;50.966;5.284;2023-02-26T18:06:14;6.70;84.40
37460;DHT22;23318;50.966;5.284;2023-02-26T18:08:40;6.60;84.00
37460;DHT22;23318;50.966;5.284;2023-02-26T18:11:07;6.70;84.60
37460;DHT22;23318;50.966;5.284;2023-02-26T18:13:36;6.60;85.00
37460;DHT22;23318;50.966;5.284;2023-02-26T18:16:04;6.60;85.60
37460;DHT22;23318;50.966;5.284;2023-02-26T18:18:30;6.50;86.70
37460;DHT22;23318;50.966;5.284;2023-02-26T18:20:57;6.50;86.30
37460;DHT22;23318;50.966;5.284;2023-02-26T18:23:24;6.50;86.40
37460;DHT22;23318;50.966;5.284;2023-02-26T18:25:52;6.40;86.90
37460;DHT22;23318;50.966;5.284;2023-02-26T18:28:25;6.40;87.30
37460;DHT22;23318;50.966;5.284;2023-02-26T18:30:53;6.30;87.50
37460;DHT22;23318;50.966;5.284;2023-02-26T18:33:20;6.20;87.60
37460;DHT22;23318;50.966;5.284;2023-02-26T18:35:54;6.10;88.40
37460;DHT22;23318;50.966;5.284;2023-02-26T18:38:26;6.00;89.20
37460;DHT22;23318;50.966;5.284;2023-02-26T18:40:53;5.90;89.50
37460;DHT22;23318;50.966;5.284;2023-02-26T18:43:19;5.80;90.10
37460;DHT22;23318;50.966;5.284;2023-02-26T18:45:46;5.90;89.90
37460;DHT22;23318;50.966;5.284;2023-02-26T18:48:15;5.80;90.10
37460;DHT22;23318;50.966;5.284;2023-02-26T18:50:42;5.70;90.70
37460;DHT22;23318;50.966;5.284;2023-02-26T18:53:08;5.50;91.00
37460;DHT22;23318;50.966;5.284;2023-02-26T18:55:34;5.30;91.30
37460;DHT22;23318;50.966;5.284;2023-02-26T18:58:00;5.20;91.20
37460;DHT22;23318;50.966;5.284;2023-02-26T19:00:25;5.10;91.40
37460;DHT22;23318;50.966;5.284;2023-02-26T19:02:53;5.10;91.60
37460;DHT22;23318;50.966;5.284;2023-02-26T19:05:19;5.00;92.00
37460;DHT22;23318;50.966;5.284;2023-02-26T19:07:49;5.00;92.30
37460;DHT22;23318;50.966;5.284;2023-02-26T19:10:15;5.10;92.40
37460;DHT22;23318;50.966;5.284;2023-02-26T19:12:41;5.10;92.40
37460;DHT22;23318;50.966;5.284;2023-02-26T19:15:09;5.00;92.60
37460;DHT22;23318;50.966;5.284;2023-02-26T19:17:35;4.90;92.80
37460;DHT22;23318;50.966;5.284;2023-02-26T19:20:01;4.90;93.30
37460;DHT22;23318;50.966;5.284;2023-02-26T19:22:27;4.80;93.50
37460;DHT22;23318;50.966;5.284;2023-02-26T19:24:52;4.70;93.30